Time;durP1;ratioP1;P1;durP2;ratioP2;P2;SDS_P1;SDS_P2;PMS_P1;PMS_P2;Temp;Humidity;BMP_temperature;BMP_pressure;BME280_temperature;BME280_humidity;BME280_pressure;Samples;Min_cycle;Max_cycle;Signal;HPM_P1;HPM_P2
2022/10/01 00:00:55;;;;;;;6.65;4.63;;;;;;;14.81;73.84;100162.13;6215447;22;20004;-75
2022/10/01 00:03:23;;;;;;;7.82;5.00;;;;;;;14.86;73.63;100149.78;6214660;22;20308;-75
2022/10/01 00:06:03;;;;;;;5.97;4.40;;;;;;;14.97;73.08;100122.47;6213903;22;20527;-75
2022/10/01 00:08:30;;;;;;;6.60;4.88;;;;;;;14.81;73.08;100110.50;6214602;22;20020;-73
2022/10/01 00:10:57;;;;;;;5.47;4.22;;;;;;;15.07;72.65;100119.69;6218006;22;20012;-74
2022/10/01 00:13:22;;;;;;;8.10;4.50;;;;;;;14.68;73.48;100114.22;6216799;22;20690;-74
2022/10/01 00:15:48;;;;;;;5.68;4.38;;;;;;;15.00;73.15;100106.66;6211085;22;20105;-75
2022/10/01 00:18:13;;;;;;;5.72;4.10;;;;;;;14.92;73.07;100084.97;6215485;22;20487;-75
2022/10/01 00:20:43;;;;;;;6.00;4.20;;;;;;;14.86;73.32;100094.69;6215486;22;20069;-74
2022/10/01 00:23:13;;;;;;;5.50;4.15;;;;;;;14.81;73.85;100093.91;6217041;22;20242;-75
2022/10/01 00:25:40;;;;;;;5.47;4.20;;;;;;;14.73;74.07;100095.78;6218268;22;20073;-73
2022/10/01 00:28:06;;;;;;;6.35;4.50;;;;;;;15.02;73.07;100088.28;6212455;22;20004;-73
2022/10/01 00:30:32;;;;;;;5.57;4.07;;;;;;;14.91;73.31;100093.72;6219735;22;20016;-75
2022/10/01 00:32:57;;;;;;;6.93;4.43;;;;;;;15.19;72.39;100095.84;6211538;22;20460;-74
2022/10/01 00:35:22;;;;;;;7.05;4.00;;;;;;;14.97;72.77;100098.88;6221963;22;20338;-74
2022/10/01 00:37:52;;;;;;;5.93;4.00;;;;;;;14.70;74.36;100073.06;6217792;23;20091;-72
2022/10/01 00:40:19;;;;;;;6.28;4.00;;;;;;;14.84;73.27;100065.84;6206833;23;20019;-73
2022/10/01 00:42:45;;;;;;;6.78;4.30;;;;;;;15.05;73.20;100067.25;6217229;22;20027;-73
2022/10/01 00:45:13;;;;;;;6.25;4.10;;;;;;;15.03;73.02;100061.13;6214300;22;20480;-73
2022/10/01 00:47:53;;;;;;;5.47;4.00;;;;;;;14.98;72.95;100057.72;6219753;22;20008;-73
2022/10/01 00:50:32;;;;;;;6.15;4.10;;;;;;;14.82;73.72;100046.63;6209652;22;20039;-73
2022/10/01 00:53:01;;;;;;;8.18;4.30;;;;;;;14.79;74.09;100043.19;6218157;23;20008;-74
2022/10/01 00:55:31;;;;;;;6.07;4.18;;;;;;;15.03;73.40;100045.38;6213680;22;20495;-73
2022/10/01 00:57:57;;;;;;;5.03;4.03;;;;;;;14.94;73.43;100030.66;6212514;22;20425;-73
2022/10/01 01:00:23;;;;;;;5.75;4.13;;;;;;;14.92;73.77;100016.72;6235310;22;20259;-73
2022/10/01 01:02:49;;;;;;;7.93;4.70;;;;;;;14.87;74.25;100026.44;6207935;22;20042;-73
2022/10/01 01:05:15;;;;;;;6.78;4.40;;;;;;;15.01;73.39;100034.03;6217911;22;20004;-74
2022/10/01 01:07:45;;;;;;;6.20;4.03;;;;;;;14.84;74.03;100012.47;6216703;23;20004;-74
2022/10/01 01:10:13;;;;;;;5.57;4.03;;;;;;;14.81;74.32;100015.19;6205561;22;20537;-74
2022/10/01 01:12:44;;;;;;;5.53;3.72;;;;;;;15.00;74.46;100012.19;6216737;22;20352;-73
2022/10/01 01:15:24;;;;;;;4.97;3.85;;;;;;;14.48;75.67;100001.72;6211797;22;20491;-74
2022/10/01 01:18:11;;;;;;;5.03;4.03;;;;;;;15.08;73.86;100004.16;6216656;22;20061;-73
2022/10/01 01:20:52;;;;;;;5.05;4.00;;;;;;;14.94;74.90;100014.06;6210373;22;20622;-73
2022/10/01 01:23:18;;;;;;;6.68;3.95;;;;;;;15.02;74.21;100020.91;6214505;22;20440;-74
2022/10/01 01:25:58;;;;;;;5.72;4.20;;;;;;;15.20;73.92;100011.81;6215958;23;20008;-75
2022/10/01 01:28:31;;;;;;;5.20;4.45;;;;;;;14.93;74.42;100028.09;6209362;22;20094;-75
2022/10/01 01:31:01;;;;;;;5.97;4.40;;;;;;;15.12;74.08;100013.72;6218887;22;20091;-74
2022/10/01 01:33:31;;;;;;;5.30;4.45;;;;;;;15.09;74.12;100015.53;6214376;22;20408;-75
2022/10/01 01:36:15;;;;;;;6.47;4.38;;;;;;;15.36;73.21;100015.03;6213755;23;20012;-75
2022/10/01 01:38:47;;;;;;;5.32;4.13;;;;;;;15.26;73.81;100022.19;6211126;22;20022;-74
2022/10/01 01:41:15;;;;;;;5.55;4.40;;;;;;;15.35;73.65;100019.41;6219042;22;20086;-74
2022/10/01 01:43:44;;;;;;;6.53;4.38;;;;;;;15.18;73.87;100018.00;6218762;22;20012;-74
2022/10/01 01:46:12;;;;;;;6.63;4.60;;;;;;;15.21;74.15;100003.03;6207746;23;20046;-74
2022/10/01 01:48:40;;;;;;;6.30;4.53;;;;;;;15.08;74.73;99998.03;6218230;22;20681;-73
2022/10/01 01:51:35;;;;;;;7.93;4.78;;;;;;;15.31;74.27;100001.94;6213905;22;20012;-73
2022/10/01 01:54:01;;;;;;;6.68;4.55;;;;;;;15.32;74.42;99993.19;6197331;22;20127;-73
2022/10/01 01:56:29;;;;;;;7.00;4.68;;;;;;;15.48;73.83;99996.38;6209315;22;20036;-73
2022/10/01 01:58:57;;;;;;;7.68;5.05;;;;;;;15.35;74.61;100002.78;6212002;23;20134;-74
2022/10/01 02:01:39;;;;;;;5.72;5.00;;;;;;;15.31;74.41;100015.09;6215892;22;20428;-73
2022/10/01 02:04:11;;;;;;;5.55;4.55;;;;;;;15.65;73.75;100025.84;6209184;22;20078;-74
2022/10/01 02:06:52;;;;;;;5.88;4.90;;;;;;;15.31;75.02;99998.47;6219873;22;20004;-74
2022/10/01 02:09:29;;;;;;;6.78;5.10;;;;;;;15.40;74.74;100009.66;6211463;22;20008;-74
2022/10/01 02:12:09;;;;;;;7.03;5.18;;;;;;;15.25;74.68;100007.31;6219685;22;20071;-75
2022/10/01 02:14:37;;;;;;;7.05;5.13;;;;;;;15.67;73.49;100000.41;6212163;23;20008;-76
2022/10/01 02:17:37;;;;;;;8.65;5.20;;;;;;;15.41;74.91;99994.78;6216668;23;20108;-75
2022/10/01 02:20:14;;;;;;;6.70;5.30;;;;;;;15.63;73.76;100006.59;6211070;22;20004;-76
2022/10/01 02:22:53;;;;;;;7.75;5.10;;;;;;;15.69;73.63;100009.09;6217038;22;20008;-74
2022/10/01 02:25:25;;;;;;;5.95;5.07;;;;;;;15.82;73.92;100007.06;6215328;22;20089;-73
2022/10/01 02:28:02;;;;;;;7.50;5.05;;;;;;;15.66;74.31;100001.28;6211934;22;20491;-74
2022/10/01 02:30:30;;;;;;;6.90;5.40;;;;;;;15.72;74.02;100000.28;6237982;22;20016;-75
2022/10/01 02:32:58;;;;;;;6.47;5.40;;;;;;;15.81;74.12;100002.72;6214435;22;20004;-74
2022/10/01 02:35:26;;;;;;;6.43;5.53;;;;;;;15.89;73.83;99998.16;6215302;23;20058;-74
2022/10/01 02:37:55;;;;;;;7.28;5.20;;;;;;;15.90;73.68;99991.13;6220571;22;20008;-76
2022/10/01 02:40:25;;;;;;;6.18;5.10;;;;;;;15.86;74.11;99992.94;6209252;22;20178;-75
2022/10/01 02:42:54;;;;;;;6.45;4.80;;;;;;;16.02;73.31;99975.09;6214073;23;20459;-75
2022/10/01 02:45:22;;;;;;;7.13;4.78;;;;;;;15.91;74.02;99979.72;6214281;22;20479;-74
2022/10/01 02:47:53;;;;;;;7.35;5.10;;;;;;;15.95;74.18;99984.00;6218491;22;20267;-75
2022/10/01 02:50:22;;;;;;;6.47;4.50;;;;;;;16.02;73.68;99988.22;6208520;22;20795;-73
2022/10/01 02:53:08;;;;;;;9.02;4.78;;;;;;;15.97;73.67;99974.34;6219700;23;20373;-74
2022/10/01 02:55:37;;;;;;;6.20;4.80;;;;;;;15.67;75.11;99987.25;6217395;22;20008;-74
2022/10/01 02:58:03;;;;;;;5.70;4.63;;;;;;;15.86;74.44;99989.50;6210000;22;20039;-75
2022/10/01 03:00:28;;;;;;;6.65;4.30;;;;;;;15.77;74.84;99986.16;6219620;22;20086;-75
2022/10/01 03:02:54;;;;;;;5.53;4.32;;;;;;;15.94;74.50;99996.28;6216452;22;20024;-74
2022/10/01 03:05:19;;;;;;;6.00;4.32;;;;;;;16.07;74.08;99987.22;6220173;22;20008;-74
2022/10/01 03:07:46;;;;;;;5.25;4.15;;;;;;;16.04;73.84;99976.75;6216110;23;20369;-74
2022/10/01 03:10:12;;;;;;;5.75;4.35;;;;;;;16.04;74.15;99983.81;6212161;22;20043;-74
2022/10/01 03:12:40;;;;;;;6.10;4.47;;;;;;;16.03;74.13;99976.81;6246004;22;20359;-75
2022/10/01 03:15:06;;;;;;;5.22;4.53;;;;;;;16.24;73.30;99985.06;6212806;23;20563;-74
2022/10/01 03:17:31;;;;;;;5.32;4.30;;;;;;;16.28;73.32;99979.75;6218700;22;20011;-74
2022/10/01 03:19:56;;;;;;;6.07;4.50;;;;;;;16.24;73.33;99982.44;6217905;22;20172;-75
2022/10/01 03:22:22;;;;;;;7.05;4.40;;;;;;;16.34;73.18;99976.97;6212567;22;20012;-75
2022/10/01 03:24:51;;;;;;;5.35;4.63;;;;;;;16.32;73.44;99973.50;6218334;22;20056;-75
2022/10/01 03:27:18;;;;;;;6.07;4.85;;;;;;;16.17;73.64;99978.22;6215818;23;20008;-76
2022/10/01 03:29:43;;;;;;;6.50;4.90;;;;;;;16.19;73.85;99980.81;6216862;22;20008;-76
2022/10/01 03:32:09;;;;;;;6.10;4.60;;;;;;;16.43;73.25;99990.75;6213470;22;20403;-75
2022/10/01 03:34:34;;;;;;;6.60;4.57;;;;;;;16.44;72.69;99994.25;6217549;22;20012;-75
2022/10/01 03:37:00;;;;;;;6.75;4.80;;;;;;;16.27;73.98;99999.06;6221734;23;20008;-76
2022/10/01 03:39:25;;;;;;;5.97;4.43;;;;;;;16.42;73.02;100003.94;6210707;22;20047;-76
2022/10/01 03:41:50;;;;;;;5.07;4.32;;;;;;;16.59;72.53;100007.00;6217074;23;20008;-77
2022/10/01 03:44:16;;;;;;;5.53;3.92;;;;;;;16.70;72.30;100018.19;6210515;22;20503;-75
2022/10/01 03:46:42;;;;;;;6.55;4.20;;;;;;;16.54;72.83;100016.78;6219970;23;20309;-75
2022/10/01 03:49:09;;;;;;;5.70;3.78;;;;;;;16.65;72.59;100014.78;6218314;22;20014;-76
2022/10/01 03:51:36;;;;;;;6.00;3.72;;;;;;;16.39;73.50;100014.53;6214222;23;20022;-76
2022/10/01 03:54:02;;;;;;;5.05;3.50;;;;;;;16.56;73.11;100007.97;6216655;22;20008;-74
2022/10/01 03:56:28;;;;;;;7.05;3.47;;;;;;;16.72;72.49;100016.34;6212942;22;20004;-76
2022/10/01 03:58:53;;;;;;;6.43;3.42;;;;;;;16.61;72.60;100007.88;6218031;22;20034;-76
2022/10/01 04:01:19;;;;;;;6.75;3.65;;;;;;;16.45;73.51;100030.19;6219628;22;20034;-76
2022/10/01 04:03:44;;;;;;;5.88;3.20;;;;;;;16.57;73.66;100024.63;6214392;22;20012;-76
2022/10/01 04:06:10;;;;;;;4.03;2.92;;;;;;;16.74;73.06;100030.34;6214994;23;20414;-77
2022/10/01 04:08:36;;;;;;;4.32;2.80;;;;;;;16.73;72.63;100028.63;6211547;22;20016;-76
2022/10/01 04:11:02;;;;;;;5.93;3.25;;;;;;;16.67;72.52;100027.91;6238094;22;20018;-75
2022/10/01 04:13:28;;;;;;;5.10;2.88;;;;;;;16.63;73.16;100035.91;6216152;22;20408;-75
2022/10/01 04:15:54;;;;;;;4.35;2.88;;;;;;;16.81;72.69;100044.22;6212024;22;20012;-77
2022/10/01 04:18:20;;;;;;;6.45;3.20;;;;;;;16.52;74.06;100058.06;6212515;22;20053;-76
2022/10/01 04:20:46;;;;;;;4.93;2.80;;;;;;;16.86;72.32;100056.38;6211340;23;20138;-75
2022/10/01 04:23:12;;;;;;;4.45;3.10;;;;;;;16.62;73.72;100056.97;6217785;22;20035;-75
2022/10/01 04:25:38;;;;;;;6.47;2.97;;;;;;;16.80;72.94;100060.94;6217501;22;20008;-76
2022/10/01 04:28:05;;;;;;;6.43;2.90;;;;;;;16.76;72.91;100059.28;6206936;23;20038;-76
2022/10/01 04:30:34;;;;;;;4.35;2.65;;;;;;;16.85;72.21;100059.03;6215066;22;20008;-77
2022/10/01 04:33:00;;;;;;;5.75;2.88;;;;;;;16.74;72.80;100071.59;6213279;22;20318;-75
2022/10/01 04:35:26;;;;;;;4.55;2.88;;;;;;;16.68;73.42;100074.38;6216475;22;20075;-76
2022/10/01 04:38:02;;;;;;;6.60;2.53;;;;;;;16.89;72.51;100082.63;6215758;22;20008;-75
2022/10/01 04:40:35;;;;;;;4.60;2.90;;;;;;;16.54;73.72;100080.81;6213413;22;20008;-75
2022/10/01 04:43:01;;;;;;;6.72;2.80;;;;;;;16.66;72.67;100086.69;6216738;22;20020;-76
2022/10/01 04:45:26;;;;;;;5.40;2.70;;;;;;;16.70;71.98;100084.00;6214542;22;20007;-76
2022/10/01 04:47:54;;;;;;;5.03;2.55;;;;;;;16.59;71.69;100083.31;6218321;22;20004;-76
2022/10/01 04:50:20;;;;;;;6.43;3.10;;;;;;;16.33;74.25;100096.22;6207569;22;20012;-76
2022/10/01 04:52:46;;;;;;;5.55;2.50;;;;;;;16.53;72.49;100102.75;6218201;22;20004;-76
2022/10/01 04:55:12;;;;;;;5.22;3.10;;;;;;;16.48;72.47;100114.28;6216428;22;20432;-76
2022/10/01 04:57:38;;;;;;;6.90;2.90;;;;;;;16.47;72.27;100100.25;6210023;23;20428;-77
2022/10/01 05:00:05;;;;;;;9.50;2.97;;;;;;;16.36;72.80;100106.66;6211204;23;20019;-75
2022/10/01 05:02:33;;;;;;;4.47;2.70;;;;;;;16.46;71.98;100116.09;6211059;22;20387;-75
2022/10/01 05:04:58;;;;;;;6.10;2.90;;;;;;;16.44;71.94;100113.50;6220744;22;20004;-75
2022/10/01 05:07:23;;;;;;;8.50;2.90;;;;;;;16.35;72.73;100116.31;6216034;22;20969;-75
2022/10/01 05:09:49;;;;;;;11.43;3.10;;;;;;;16.38;72.15;100126.78;6210257;22;20015;-76
2022/10/01 05:12:14;;;;;;;7.05;2.53;;;;;;;16.48;72.32;100123.03;6212781;23;20011;-77
2022/10/01 05:14:39;;;;;;;6.88;2.63;;;;;;;16.48;72.52;100132.69;6211967;22;20414;-76
2022/10/01 05:17:06;;;;;;;7.60;2.90;;;;;;;16.52;72.50;100134.38;6216667;23;20317;-76
2022/10/01 05:19:32;;;;;;;9.65;3.20;;;;;;;16.45;72.57;100138.91;6217625;22;20011;-77
2022/10/01 05:21:57;;;;;;;4.18;2.47;;;;;;;16.51;72.14;100143.16;6212269;22;20011;-76
2022/10/01 05:24:23;;;;;;;9.43;2.67;;;;;;;16.50;72.18;100144.06;6212913;23;20285;-76
2022/10/01 05:26:48;;;;;;;6.75;2.72;;;;;;;16.49;72.21;100155.47;6211140;22;20131;-76
2022/10/01 05:29:14;;;;;;;6.93;2.80;;;;;;;16.49;72.15;100158.97;6217625;23;20079;-76
2022/10/01 05:31:42;;;;;;;7.60;2.50;;;;;;;16.48;71.91;100159.88;6218494;22;20411;-76
2022/10/01 05:34:08;;;;;;;7.57;2.90;;;;;;;16.46;72.43;100163.47;6208784;22;20015;-77
2022/10/01 05:36:34;;;;;;;8.10;2.90;;;;;;;16.48;72.47;100164.28;6218490;23;20012;-76
2022/10/01 05:38:59;;;;;;;7.57;2.90;;;;;;;16.53;72.16;100160.63;6209044;22;20012;-76
2022/10/01 05:41:24;;;;;;;6.57;3.00;;;;;;;16.55;72.57;100165.88;6215274;22;20487;-77
2022/10/01 05:43:50;;;;;;;6.32;2.67;;;;;;;16.55;72.66;100171.13;6216795;22;20414;-77
2022/10/01 05:46:15;;;;;;;8.30;3.13;;;;;;;16.57;72.80;100171.97;6207635;22;20080;-77
2022/10/01 05:48:41;;;;;;;8.52;3.40;;;;;;;16.59;72.72;100175.41;6216598;22;20079;-76
2022/10/01 05:51:07;;;;;;;8.57;2.83;;;;;;;16.60;72.70;100179.81;6211931;22;20115;-76
2022/10/01 05:53:36;;;;;;;4.78;2.75;;;;;;;16.65;72.11;100174.47;6212829;23;20008;-76
2022/10/01 05:56:02;;;;;;;5.95;2.75;;;;;;;16.61;72.24;100184.19;6218474;22;20039;-75
2022/10/01 05:58:28;;;;;;;7.90;2.80;;;;;;;16.63;72.17;100195.56;6206885;22;20034;-77
2022/10/01 06:00:54;;;;;;;6.82;3.03;;;;;;;16.63;72.46;100191.16;6213097;23;20436;-75
2022/10/01 06:03:20;;;;;;;5.22;2.65;;;;;;;16.69;72.25;100191.94;6208895;23;20004;-77
2022/10/01 06:05:45;;;;;;;8.50;2.70;;;;;;;16.76;72.74;100186.50;6217310;22;20439;-76
2022/10/01 06:08:11;;;;;;;7.85;2.90;;;;;;;16.88;73.13;100175.69;6211120;22;20357;-76
2022/10/01 06:10:37;;;;;;;7.22;2.83;;;;;;;16.98;73.47;100190.34;6218446;22;20038;-77
2022/10/01 06:13:04;;;;;;;9.90;2.80;;;;;;;17.07;73.35;100196.31;6219191;22;20556;-77
2022/10/01 06:15:33;;;;;;;12.65;2.95;;;;;;;17.27;73.45;100192.28;6215420;22;20392;-76
2022/10/01 06:18:08;;;;;;;13.77;3.00;;;;;;;17.41;73.55;100197.22;6217063;22;20015;-76
2022/10/01 06:20:34;;;;;;;8.20;2.58;;;;;;;17.45;73.15;100207.63;6214496;22;20036;-76
2022/10/01 06:23:00;;;;;;;7.55;2.45;;;;;;;17.63;72.87;100213.34;6220121;22;20035;-76
2022/10/01 06:25:30;;;;;;;5.95;2.00;;;;;;;17.79;72.45;100225.25;6216893;22;20004;-74
2022/10/01 06:27:57;;;;;;;7.30;2.33;;;;;;;17.73;71.96;100214.88;6214506;22;20391;-75
2022/10/01 06:30:25;;;;;;;6.13;2.30;;;;;;;17.59;71.73;100202.00;6213573;22;20511;-74
2022/10/01 06:32:52;;;;;;;6.82;2.10;;;;;;;17.42;71.72;100214.75;6213447;22;20042;-74
2022/10/01 06:35:19;;;;;;;8.63;2.10;;;;;;;17.46;71.76;100221.66;6218982;22;20004;-74
2022/10/01 06:37:45;;;;;;;5.53;2.05;;;;;;;17.39;71.49;100220.09;6218739;22;20054;-74
2022/10/01 06:40:10;;;;;;;8.98;2.08;;;;;;;17.27;71.42;100215.97;6207812;22;20016;-75
2022/10/01 06:42:35;;;;;;;6.68;2.08;;;;;;;17.22;71.18;100227.53;6217971;23;20091;-75
2022/10/01 06:45:01;;;;;;;7.97;2.13;;;;;;;17.12;71.39;100232.16;6214673;22;20714;-76
2022/10/01 06:47:26;;;;;;;6.38;2.20;;;;;;;17.07;71.41;100228.78;6218102;22;20070;-74
2022/10/01 06:49:51;;;;;;;10.75;2.55;;;;;;;17.05;71.77;100230.56;6216578;22;20008;-76
2022/10/01 06:55:00;;;;;;;7.72;2.60;;;;;;;17.18;72.45;100233.78;6217900;23;20386;-74
2022/10/01 06:57:27;;;;;;;9.32;2.80;;;;;;;17.33;73.62;100234.28;6217116;22;20023;-75
2022/10/01 06:59:52;;;;;;;12.18;3.00;;;;;;;17.81;74.32;100240.09;6216067;22;20013;-74
2022/10/01 07:02:31;;;;;;;9.90;2.72;;;;;;;18.34;72.30;100239.56;6210841;22;20032;-76
2022/10/01 07:05:00;;;;;;;8.23;2.53;;;;;;;18.52;70.58;100241.69;6218662;22;20400;-75
2022/10/01 07:07:36;;;;;;;6.38;2.03;;;;;;;18.22;69.07;100243.41;6220586;22;20015;-75
2022/10/01 07:10:04;;;;;;;7.85;2.22;;;;;;;18.37;70.13;100240.34;6207401;22;20440;-75
2022/10/01 07:12:30;;;;;;;8.73;2.45;;;;;;;18.46;70.97;100253.28;6218352;22;20066;-74
2022/10/01 07:14:55;;;;;;;8.65;2.10;;;;;;;18.36;70.55;100251.78;6211151;22;20012;-75
2022/10/01 07:17:21;;;;;;;7.35;2.00;;;;;;;18.66;70.15;100249.25;6217507;22;20008;-75
2022/10/01 07:19:46;;;;;;;10.10;1.90;;;;;;;18.71;69.75;100255.25;6216290;22;20014;-75
2022/10/01 07:22:12;;;;;;;9.13;2.15;;;;;;;18.45;69.84;100254.19;6206757;22;20368;-77
2022/10/01 07:24:37;;;;;;;7.57;2.15;;;;;;;18.31;70.15;100268.66;6214191;22;20028;-77
2022/10/01 07:27:03;;;;;;;9.63;2.10;;;;;;;18.23;69.50;100264.50;6211060;22;20279;-74
2022/10/01 07:29:30;;;;;;;11.63;2.10;;;;;;;18.28;70.30;100272.28;6215988;22;20442;-77
2022/10/01 07:32:00;;;;;;;13.60;2.50;;;;;;;17.96;71.31;100265.22;6217416;22;20175;-77
2022/10/01 07:34:26;;;;;;;11.23;2.42;;;;;;;18.29;70.76;100281.94;6211664;22;20186;-75
2022/10/01 07:36:53;;;;;;;8.57;1.80;;;;;;;18.47;70.70;100273.50;6211629;22;20008;-75
2022/10/01 07:39:19;;;;;;;10.27;1.95;;;;;;;18.25;70.47;100285.53;6213636;22;20042;-77
2022/10/01 07:41:44;;;;;;;10.98;1.90;;;;;;;18.40;69.89;100289.53;6205319;22;20473;-76
2022/10/01 07:44:12;;;;;;;12.73;2.28;;;;;;;18.53;68.74;100293.56;6209989;22;20008;-77
2022/10/01 07:46:38;;;;;;;14.95;1.70;;;;;;;18.23;69.41;100287.38;6217454;23;20010;-76
2022/10/01 07:49:04;;;;;;;8.07;1.60;;;;;;;18.29;69.02;100289.84;6215284;22;20764;-75
2022/10/01 07:51:30;;;;;;;10.90;2.00;;;;;;;18.54;68.03;100295.31;6212478;22;20122;-76
2022/10/01 07:53:57;;;;;;;10.18;1.90;;;;;;;18.05;69.57;100309.81;6217461;22;20034;-75
2022/10/01 07:56:23;;;;;;;14.07;1.70;;;;;;;17.58;70.53;100312.75;6212364;22;20008;-75
2022/10/01 07:58:50;;;;;;;12.20;1.75;;;;;;;18.06;69.59;100313.31;6217344;22;20489;-75
2022/10/01 08:01:16;;;;;;;11.05;1.88;;;;;;;17.84;70.35;100324.44;6215699;22;20004;-75
2022/10/01 08:03:42;;;;;;;10.10;1.65;;;;;;;18.32;69.00;100316.13;6215152;22;20039;-76
2022/10/01 08:06:10;;;;;;;12.25;1.80;;;;;;;18.45;69.06;100325.44;6233861;22;20035;-75
2022/10/01 08:08:36;;;;;;;8.27;1.55;;;;;;;18.59;67.45;100333.03;6234342;22;20015;-76
2022/10/01 08:11:02;;;;;;;9.48;1.60;;;;;;;18.57;66.61;100333.06;6217101;22;20022;-75
2022/10/01 08:13:27;;;;;;;9.35;1.70;;;;;;;18.57;67.28;100337.47;6217965;22;20585;-75
2022/10/01 08:15:53;;;;;;;10.27;1.55;;;;;;;18.42;66.46;100337.88;6211274;22;20004;-75
2022/10/01 08:18:22;;;;;;;7.85;1.70;;;;;;;18.49;67.16;100342.94;6214367;22;20083;-76
2022/10/01 08:20:48;;;;;;;10.35;1.48;;;;;;;18.60;65.73;100350.59;6181904;23;20062;-76
2022/10/01 08:23:15;;;;;;;7.47;1.60;;;;;;;18.84;63.88;100355.19;6213925;22;20020;-76
2022/10/01 08:25:42;;;;;;;10.68;1.65;;;;;;;18.56;65.64;100348.94;6217879;22;20442;-76
2022/10/01 08:28:09;;;;;;;7.47;1.60;;;;;;;18.67;65.60;100354.78;6206583;22;20027;-77
2022/10/01 08:30:38;;;;;;;13.02;1.73;;;;;;;18.73;65.44;100359.88;6222939;22;20012;-76
2022/10/01 08:33:03;;;;;;;10.45;1.42;;;;;;;18.59;66.23;100370.00;6238945;22;20016;-77
2022/10/01 08:35:29;;;;;;;7.90;1.60;;;;;;;18.91;65.50;100371.72;6214807;22;20038;-76
2022/10/01 08:37:55;;;;;;;10.95;1.92;;;;;;;18.47;65.95;100378.22;6217631;22;20312;-75
2022/10/01 08:40:22;;;;;;;12.68;1.60;;;;;;;18.42;65.77;100380.13;6207653;22;20258;-77
2022/10/01 08:42:58;;;;;;;10.27;1.98;;;;;;;17.98;65.83;100373.31;6215343;22;20027;-75
2022/10/01 08:45:38;;;;;;;10.63;1.88;;;;;;;18.02;65.80;100383.75;6211618;22;20008;-75
2022/10/01 08:48:30;;;;;;;13.25;2.20;;;;;;;18.43;65.14;100384.47;6212160;22;20088;-76
2022/10/01 08:51:17;;;;;;;14.90;2.15;;;;;;;18.79;64.25;100395.81;6211365;22;20012;-76
2022/10/01 08:54:18;;;;;;;8.52;1.95;;;;;;;18.59;64.10;100393.75;6217112;23;20019;-75
2022/10/01 08:56:46;;;;;;;10.00;1.60;;;;;;;19.14;62.61;100392.19;6200179;22;20562;-76
2022/10/01 08:59:30;;;;;;;10.38;1.75;;;;;;;19.22;63.04;100400.75;6211904;22;20507;-76
2022/10/01 09:01:55;;;;;;;13.55;2.10;;;;;;;19.53;62.33;100404.25;6215017;23;20004;-76
2022/10/01 09:04:22;;;;;;;11.32;1.98;;;;;;;19.50;61.79;100401.72;6211146;22;20012;-76
2022/10/01 09:07:05;;;;;;;9.50;2.10;;;;;;;19.54;61.40;100415.69;6218985;22;20011;-77
2022/10/01 09:09:49;;;;;;;16.38;2.55;;;;;;;19.31;62.54;100421.63;6210287;22;20058;-78
2022/10/01 09:12:22;;;;;;;12.30;1.83;;;;;;;19.14;62.24;100422.13;6234911;22;20085;-76
2022/10/01 09:15:12;;;;;;;13.52;2.30;;;;;;;18.87;62.70;100436.09;6211852;22;20008;-78
2022/10/01 09:17:47;;;;;;;10.63;1.90;;;;;;;19.14;62.13;100439.75;6216396;22;20004;-77
2022/10/01 09:20:24;;;;;;;11.02;1.88;;;;;;;19.55;61.02;100443.84;6209394;22;20176;-78
2022/10/01 09:23:11;;;;;;;10.50;2.05;;;;;;;19.71;60.13;100445.13;6219007;22;20604;-77
2022/10/01 09:25:38;;;;;;;11.68;2.00;;;;;;;19.60;59.80;100445.44;6218322;22;20439;-76
2022/10/01 09:28:14;;;;;;;10.05;2.00;;;;;;;19.39;60.43;100451.38;6209829;22;20143;-75
2022/10/01 09:31:02;;;;;;;12.50;2.28;;;;;;;19.79;60.18;100454.56;6216589;22;20088;-76
2022/10/01 09:33:35;;;;;;;9.52;1.67;;;;;;;19.33;59.89;100456.81;6207786;22;20333;-76
2022/10/01 09:36:10;;;;;;;8.88;1.55;;;;;;;19.65;59.65;100464.69;6220656;22;20011;-77
2022/10/01 09:38:41;;;;;;;12.95;1.95;;;;;;;19.51;59.89;100476.59;6216787;22;20062;-76
2022/10/01 09:41:09;;;;;;;8.32;1.65;;;;;;;19.62;59.90;100474.50;6217541;22;20408;-77
2022/10/01 09:43:38;;;;;;;14.18;2.10;;;;;;;19.70;59.49;100473.34;6221089;22;20024;-77
2022/10/01 09:46:14;;;;;;;11.88;2.00;;;;;;;19.82;59.87;100478.25;6213470;22;20097;-77
2022/10/01 09:48:54;;;;;;;13.38;1.70;;;;;;;19.42;59.14;100483.84;6216193;22;20024;-75
2022/10/01 09:51:43;;;;;;;10.60;1.77;;;;;;;19.53;60.10;100482.69;6215140;22;20081;-77
2022/10/01 09:54:20;;;;;;;13.18;2.03;;;;;;;19.18;60.36;100496.91;6217853;22;20058;-77
2022/10/01 09:57:21;;;;;;;9.40;2.00;;;;;;;19.53;59.57;100485.34;6210425;22;20012;-75
2022/10/01 09:59:53;;;;;;;9.63;1.67;;;;;;;19.61;59.69;100504.50;6215474;22;20486;-77
2022/10/01 10:02:26;;;;;;;13.63;2.03;;;;;;;19.98;58.35;100502.47;6210975;22;20032;-77
2022/10/01 10:05:00;;;;;;;9.18;1.73;;;;;;;19.78;57.74;100511.00;6216659;22;20160;-76
2022/10/01 10:07:25;;;;;;;13.52;2.05;;;;;;;19.51;57.78;100511.84;6238462;22;20005;-75
2022/10/01 10:09:51;;;;;;;9.90;1.95;;;;;;;19.32;58.21;100516.75;6211548;22;20053;-76
2022/10/01 10:12:30;;;;;;;11.13;1.77;;;;;;;19.36;57.15;100528.09;6213148;22;20309;-77
2022/10/01 10:15:04;;;;;;;10.50;2.20;;;;;;;19.64;56.19;100528.22;6213784;22;20499;-75
2022/10/01 10:17:30;;;;;;;;;;;;;;;19.29;58.26;100539.75;6216240;22;20349;-75
2022/10/01 10:19:55;;;;;;;18.13;2.50;;;;;;;19.19;57.86;100539.13;6216260;23;19950;-76
2022/10/01 10:22:25;;;;;;;9.25;2.22;;;;;;;19.03;59.13;100537.81;6205845;23;20008;-74
2022/10/01 10:24:57;;;;;;;11.30;2.20;;;;;;;19.07;58.66;100544.75;6215223;22;20008;-75
2022/10/01 10:27:28;;;;;;;12.60;2.30;;;;;;;19.29;57.26;100551.19;6213005;22;20011;-74
2022/10/01 10:30:04;;;;;;;12.98;1.80;;;;;;;19.39;57.51;100539.44;6217190;22;20004;-77
2022/10/01 10:32:30;;;;;;;12.57;2.00;;;;;;;19.82;58.12;100547.03;6210437;22;20383;-75
2022/10/01 10:35:02;;;;;;;8.65;2.05;;;;;;;19.95;57.71;100549.31;6218282;22;20000;-75
2022/10/01 10:37:31;;;;;;;11.20;2.40;;;;;;;19.96;57.22;100565.16;6215129;22;20083;-76
2022/10/01 10:39:57;;;;;;;14.48;2.53;;;;;;;19.84;56.93;100569.03;6209925;22;20012;-75
2022/10/01 10:42:24;;;;;;;12.32;2.10;;;;;;;19.95;55.34;100574.00;6212846;22;20372;-75
2022/10/01 10:44:51;;;;;;;9.35;1.92;;;;;;;20.00;55.67;100576.53;6213222;22;20012;-75
2022/10/01 10:47:19;;;;;;;9.57;1.90;;;;;;;20.36;55.14;100577.22;6217287;22;20478;-75
2022/10/01 10:49:52;;;;;;;12.98;2.40;;;;;;;20.01;53.69;100579.09;6214526;23;20291;-75
2022/10/01 10:52:32;;;;;;;12.88;2.10;;;;;;;20.36;53.85;100590.44;6208755;22;20535;-76
2022/10/01 10:54:59;;;;;;;13.50;2.03;;;;;;;20.08;54.27;100588.59;6215172;22;20511;-75
2022/10/01 10:57:30;;;;;;;10.98;2.30;;;;;;;19.78;53.86;100600.09;6213970;22;20118;-74
2022/10/01 10:59:55;;;;;;;12.75;2.00;;;;;;;19.36;56.38;100608.28;6216798;22;20015;-76
2022/10/01 11:02:24;;;;;;;11.40;2.20;;;;;;;19.32;56.77;100611.91;6211582;22;20635;-75
2022/10/01 11:04:51;;;;;;;12.18;2.03;;;;;;;19.54;56.12;100616.63;6219544;22;19996;-75
2022/10/01 11:07:22;;;;;;;10.07;2.20;;;;;;;19.89;55.75;100620.94;6219571;22;20019;-75
2022/10/01 11:10:02;;;;;;;13.20;2.17;;;;;;;19.43;56.67;100624.84;6210789;22;20026;-77
2022/10/01 11:12:39;;;;;;;16.27;2.25;;;;;;;19.11;56.90;100633.59;6216707;22;20745;-76
2022/10/01 11:15:24;;;;;;;12.80;1.63;;;;;;;19.47;56.07;100638.88;6214014;22;20016;-76
2022/10/01 11:18:21;;;;;;;12.15;2.20;;;;;;;19.50;56.94;100642.31;6215767;22;20008;-77
2022/10/01 11:21:05;;;;;;;8.70;1.77;;;;;;;19.57;56.11;100645.66;6215007;22;20022;-76
2022/10/01 11:23:57;;;;;;;15.60;2.08;;;;;;;19.36;56.42;100647.06;6218080;23;20122;-74
2022/10/01 11:26:43;;;;;;;13.80;2.17;;;;;;;19.51;56.60;100654.63;6213708;22;20472;-75
2022/10/01 11:29:12;;;;;;;13.90;2.30;;;;;;;19.55;55.54;100652.75;6213400;22;20408;-75
2022/10/01 11:31:51;;;;;;;11.75;2.00;;;;;;;20.03;55.40;100661.09;6220458;23;20553;-75
2022/10/01 11:34:52;;;;;;;11.80;1.90;;;;;;;20.57;53.54;100662.13;6208110;23;20040;-75
2022/10/01 11:37:48;;;;;;;10.20;1.92;;;;;;;20.99;53.02;100674.94;6216024;22;20027;-75
2022/10/01 11:40:25;;;;;;;10.98;2.03;;;;;;;21.10;52.50;100666.66;6210761;22;20078;-74